Cowarts, Alabama
Current Conditions -  °F | °C
As of 5:53 PM on Tuesday 25 Nov 2014 (Local Time) from KDHN Reporting Station
Overcast Overcast  
Wind Chill: 47°   Ceiling: 5000
Heat Index: 49°   Visibility: 10mi
Dew Point: 44°   Wind: 5mph
Humidity: 83%   Direction: 40°NE
Pressure: 30.1"   Gusts: NA
Location:  31.2°N, 85.3°W
Report Text: KDHN 252353Z 04004KT 10SM OVC050 09/07 A3010 RMK AO2 RAE50 SLP189 P0002 60020 T00940067 10111 20089 51012
Loading
Personal Weather Stations






























Interactive Weather Map New forecast layout! Learn more

10-Day Weather Forecast

Advertisements
Track Severe Weather on mobile